This is the latest recevied weather packets stored in our database for station/object K2ATL. If no packets are shown the sender has not sent any weather packets the latest 10 day(s).
| Time | Temp. | Humidity | Pressure | Rain* | Wind** | Luminosity | Snow |
|---|---|---|---|---|---|---|---|
| 1777489890 | 21.11° C | 81% | 1097.6 hPa | 0 mm | - | 891 W/m² | - |
| 1777489587 | 21.11° C | 80% | 1097.7 hPa | 0 mm | - | 895 W/m² | - |
| 1777489283 | 21.11° C | 80% | 1097.6 hPa | 0 mm | - | 395 W/m² | - |
| 1777488981 | 20° C | 84% | 1097.6 hPa | 0 mm | - | 1207 W/m² | - |
| 1777488678 | 20.56° C | 80% | 1097.8 hPa | 0 mm | - | 588 W/m² | - |
| 1777488376 | 21.11° C | 82% | 1097.7 hPa | 0 mm | - | 962 W/m² | - |
| 1777488074 | 20.56° C | 85% | 1097.7 hPa | 0 mm | - | 962 W/m² | - |
| 1777487771 | 21.11° C | 84% | 1097.7 hPa | 0 mm | - | 978 W/m² | - |
| 1777487469 | 21.11° C | 81% | 1097.8 hPa | 0 mm | - | 430 W/m² | - |
| 1777487166 | 20.56° C | 83% | 1097.9 hPa | 0 mm | - | 410 W/m² | - |
| 1777486861 | 20° C | 85% | 1098 hPa | 0 mm | - | 839 W/m² | - |
| 1777486559 | 20° C | 85% | 1098.3 hPa | 0 mm | - | 912 W/m² | - |
| 1777486257 | 19.44° C | 87% | 1098.3 hPa | 0 mm | - | 352 W/m² | - |
| 1777485954 | 20.56° C | 86% | 1098.3 hPa | 0 mm | - | 193 W/m² | - |
| 1777485650 | 20° C | 84% | 1098.5 hPa | 0 mm | - | 668 W/m² | - |
| 1777485345 | 19.44° C | 85% | 1098.3 hPa | 0 mm | - | 429 W/m² | - |
| 1777485042 | 17.78° C | 90% | 1098.4 hPa | 0 mm | - | 579 W/m² | - |
| 1777484739 | 17.78° C | 90% | 1098.6 hPa | 0 mm | - | 332 W/m² | - |
| 1777484435 | 17.78° C | 91% | 1098.7 hPa | 0 mm | - | 277 W/m² | - |
| 1777484132 | 18.33° C | 91% | 1098.6 hPa | 0 mm | - | 139 W/m² | - |
| 1777483828 | 18.89° C | 89% | 1098.9 hPa | 0 mm | - | 164 W/m² | - |
| 1777483526 | 17.78° C | 91% | 1098.7 hPa | 0 mm | - | 363 W/m² | - |
| 1777483225 | 18.33° C | 90% | 1098.8 hPa | 0 mm | - | 280 W/m² | - |
| 1777482922 | 18.89° C | 90% | 1098.8 hPa | 0 mm | - | 193 W/m² | - |
| 1777482618 | 17.78° C | 89% | 1098.9 hPa | 0 mm | - | 427 W/m² | - |
* Rain latest hour (hover to see other rain measurements)
** Current wind speed in m/s (hover to see current wind gust speed)